Rechercher aéroport 
image banner adimage banner adimage banner ad
image banner ad

KIPL - Imperial County

Situé à Imperial, United States

ICAO - IPL, IATA - IPL

Données fournies par Airmate  

Information générale

Coordonnées: N32°50'3" W115°34'44"
Élévation : -54 feet MSL.
Variation magnétique : 14° East
Voir autres Aéroports à California

Données opérationnelles

Special qualification required
Heure actuelle UTC:
Heure actuelle locale:
Météo
METAR: KIPL 291453Z AUTO 26003KT 10SM CLR 32/16 A2978 RMK AO2 SLP086 T03220161 51007
TAF: KIPL 291124Z 2912/3012 VRB05KT P6SM SCT250 FM292000 16008KT P6SM FEW100 BKN250 FM301000 16014KT P6SM VCSH SCT080 SCT150 OVC250
Voir NOTAMs / SUP AIP / TFR affectant cet aéroport [VIEW]
Fréquences de communication: [VIEW]

Pistes:

Identifiant RWYQFULongueur (ft)Largeur (ft)SurfaceLDA (ft)
0890°450175ASPH4501
26270°450175ASPH4501
14153°5308100ASPH5304
32333°5308100ASPH5304

Coordonnées de l'aéroport

Adresse: Imperial United States

Autres services d'aviation

Écoles de pilotage

Imperial Sky Aviation, Llc

Imperial Sky Aviation, Llc

Vue satellite de KIPL